Terminal Aerodrome Forecast
Issued by NWS Wakefield, VA

Home | Current Version | Previous Version | Text Only | Print | Product List | Glossary On
Versions: 1 2 3 4 5 6 7 8 9 10 11 12 13
298
FTUS41 KAKQ 041720
TAFORF
TAF
KORF 041720Z 0418/0518 34005KT P6SM BKN120
     FM050000 VRB03KT P6SM VCSH OVC070
     FM050500 14006KT 4SM -RA BR OVC025
     FM050800 00000KT 1SM -RA BR OVC010
     FM051400 02006KT 3SM -RA BR BKN012
     FM051500 02006KT P6SM BKN035=

USA.gov is the U.S. government's official web portal to all federal, state and local government web resources and services.